sensor_id;sensor_type;location;lat;lon;timestamp;temperature;humidity
40374;DHT22;26079;45.958;12.492;2023-07-28T00:01:31;20.20;99.80
40374;DHT22;26079;45.958;12.492;2023-07-28T00:03:57;20.20;99.80
40374;DHT22;26079;45.958;12.492;2023-07-28T00:06:25;20.20;98.50
40374;DHT22;26079;45.958;12.492;2023-07-28T00:08:51;20.30;98.90
40374;DHT22;26079;45.958;12.492;2023-07-28T00:11:17;20.20;98.50
40374;DHT22;26079;45.958;12.492;2023-07-28T00:13:42;20.20;98.50
40374;DHT22;26079;45.958;12.492;2023-07-28T00:16:09;20.20;99.70
40374;DHT22;26079;45.958;12.492;2023-07-28T00:18:35;20.20;99.90
40374;DHT22;26079;45.958;12.492;2023-07-28T00:21:01;20.20;99.90
40374;DHT22;26079;45.958;12.492;2023-07-28T00:23:28;20.10;99.90
40374;DHT22;26079;45.958;12.492;2023-07-28T00:25:53;20.00;99.90
40374;DHT22;26079;45.958;12.492;2023-07-28T00:28:19;19.90;99.90
40374;DHT22;26079;45.958;12.492;2023-07-28T00:30:49;19.90;99.90
40374;DHT22;26079;45.958;12.492;2023-07-28T00:33:15;19.70;99.90
40374;DHT22;26079;45.958;12.492;2023-07-28T00:35:41;19.60;99.90
40374;DHT22;26079;45.958;12.492;2023-07-28T00:38:07;19.60;99.90
40374;DHT22;26079;45.958;12.492;2023-07-28T00:40:33;19.50;99.90
40374;DHT22;26079;45.958;12.492;2023-07-28T00:42:58;19.50;99.90
40374;DHT22;26079;45.958;12.492;2023-07-28T00:45:24;19.40;99.90
40374;DHT22;26079;45.958;12.492;2023-07-28T00:47:50;19.30;99.90
40374;DHT22;26079;45.958;12.492;2023-07-28T00:50:16;19.30;99.90
40374;DHT22;26079;45.958;12.492;2023-07-28T00:52:42;19.30;99.90
40374;DHT22;26079;45.958;12.492;2023-07-28T00:55:08;19.40;99.90
40374;DHT22;26079;45.958;12.492;2023-07-28T00:57:34;19.40;99.90
40374;DHT22;26079;45.958;12.492;2023-07-28T01:00:00;19.30;99.90
40374;DHT22;26079;45.958;12.492;2023-07-28T01:02:26;19.30;99.90
40374;DHT22;26079;45.958;12.492;2023-07-28T01:04:52;19.30;99.90
40374;DHT22;26079;45.958;12.492;2023-07-28T01:10:24;19.30;99.90
40374;DHT22;26079;45.958;12.492;2023-07-28T01:12:51;19.20;99.90
40374;DHT22;26079;45.958;12.492;2023-07-28T01:15:17;19.10;99.90
40374;DHT22;26079;45.958;12.492;2023-07-28T01:17:43;19.00;99.90
40374;DHT22;26079;45.958;12.492;2023-07-28T01:20:09;19.00;99.90
40374;DHT22;26079;45.958;12.492;2023-07-28T01:23:19;19.00;99.90
40374;DHT22;26079;45.958;12.492;2023-07-28T01:28:29;19.00;99.90
40374;DHT22;26079;45.958;12.492;2023-07-28T01:30:56;18.90;99.90
40374;DHT22;26079;45.958;12.492;2023-07-28T01:33:22;18.90;99.90
40374;DHT22;26079;45.958;12.492;2023-07-28T01:35:48;18.90;99.90
40374;DHT22;26079;45.958;12.492;2023-07-28T01:38:14;18.80;99.90
40374;DHT22;26079;45.958;12.492;2023-07-28T01:40:40;18.80;99.90
40374;DHT22;26079;45.958;12.492;2023-07-28T01:43:05;18.90;99.90
40374;DHT22;26079;45.958;12.492;2023-07-28T01:45:31;18.90;99.90
40374;DHT22;26079;45.958;12.492;2023-07-28T01:47:57;18.90;99.90
40374;DHT22;26079;45.958;12.492;2023-07-28T01:50:22;18.90;99.90
40374;DHT22;26079;45.958;12.492;2023-07-28T01:52:48;18.90;99.90
40374;DHT22;26079;45.958;12.492;2023-07-28T01:55:14;18.90;99.90
40374;DHT22;26079;45.958;12.492;2023-07-28T01:57:40;18.90;99.90
40374;DHT22;26079;45.958;12.492;2023-07-28T02:00:06;18.90;99.90
40374;DHT22;26079;45.958;12.492;2023-07-28T02:02:32;18.90;99.90
40374;DHT22;26079;45.958;12.492;2023-07-28T02:04:58;18.80;99.90
40374;DHT22;26079;45.958;12.492;2023-07-28T02:07:24;18.80;99.90
40374;DHT22;26079;45.958;12.492;2023-07-28T02:09:50;18.80;99.90
40374;DHT22;26079;45.958;12.492;2023-07-28T02:12:15;18.80;99.90
40374;DHT22;26079;45.958;12.492;2023-07-28T02:14:41;18.80;99.90
40374;DHT22;26079;45.958;12.492;2023-07-28T02:17:07;18.80;99.90
40374;DHT22;26079;45.958;12.492;2023-07-28T02:19:32;18.80;99.90
40374;DHT22;26079;45.958;12.492;2023-07-28T02:21:58;18.90;99.90
40374;DHT22;26079;45.958;12.492;2023-07-28T02:24:24;18.90;99.90
40374;DHT22;26079;45.958;12.492;2023-07-28T02:26:49;19.00;99.90
40374;DHT22;26079;45.958;12.492;2023-07-28T02:29:15;19.00;99.90
40374;DHT22;26079;45.958;12.492;2023-07-28T02:31:41;19.00;99.90
40374;DHT22;26079;45.958;12.492;2023-07-28T02:34:06;19.00;99.90
40374;DHT22;26079;45.958;12.492;2023-07-28T02:36:32;19.00;99.90
40374;DHT22;26079;45.958;12.492;2023-07-28T02:38:58;19.00;99.90
40374;DHT22;26079;45.958;12.492;2023-07-28T02:41:23;19.00;99.90
40374;DHT22;26079;45.958;12.492;2023-07-28T02:43:49;19.00;99.90
40374;DHT22;26079;45.958;12.492;2023-07-28T02:46:15;19.00;99.90
40374;DHT22;26079;45.958;12.492;2023-07-28T02:48:41;19.00;99.90
40374;DHT22;26079;45.958;12.492;2023-07-28T02:51:06;18.90;99.90
40374;DHT22;26079;45.958;12.492;2023-07-28T02:53:32;18.80;99.90
40374;DHT22;26079;45.958;12.492;2023-07-28T02:55:58;18.80;99.90
40374;DHT22;26079;45.958;12.492;2023-07-28T02:58:24;18.70;99.90
40374;DHT22;26079;45.958;12.492;2023-07-28T03:00:51;18.70;99.90
40374;DHT22;26079;45.958;12.492;2023-07-28T03:03:17;18.70;99.90
40374;DHT22;26079;45.958;12.492;2023-07-28T03:05:43;18.60;99.90
40374;DHT22;26079;45.958;12.492;2023-07-28T03:08:08;18.60;99.90
40374;DHT22;26079;45.958;12.492;2023-07-28T03:10:34;18.50;99.90
40374;DHT22;26079;45.958;12.492;2023-07-28T03:13:00;18.50;99.90
40374;DHT22;26079;45.958;12.492;2023-07-28T03:15:25;18.40;99.90
40374;DHT22;26079;45.958;12.492;2023-07-28T03:17:51;18.40;99.90
40374;DHT22;26079;45.958;12.492;2023-07-28T03:20:18;18.40;99.90
40374;DHT22;26079;45.958;12.492;2023-07-28T03:22:44;18.30;99.90
40374;DHT22;26079;45.958;12.492;2023-07-28T03:25:11;18.20;99.90
40374;DHT22;26079;45.958;12.492;2023-07-28T03:27:36;18.20;99.90
40374;DHT22;26079;45.958;12.492;2023-07-28T03:30:02;18.20;99.90
40374;DHT22;26079;45.958;12.492;2023-07-28T03:32:28;18.20;99.90
40374;DHT22;26079;45.958;12.492;2023-07-28T03:34:54;18.20;99.90
40374;DHT22;26079;45.958;12.492;2023-07-28T03:37:19;18.20;99.90
40374;DHT22;26079;45.958;12.492;2023-07-28T03:39:45;18.10;99.90
40374;DHT22;26079;45.958;12.492;2023-07-28T03:42:11;18.10;99.90
40374;DHT22;26079;45.958;12.492;2023-07-28T03:44:37;18.10;99.90
40374;DHT22;26079;45.958;12.492;2023-07-28T03:47:03;18.10;99.90
40374;DHT22;26079;45.958;12.492;2023-07-28T03:49:29;18.10;99.90
40374;DHT22;26079;45.958;12.492;2023-07-28T03:51:55;18.10;99.90
40374;DHT22;26079;45.958;12.492;2023-07-28T03:54:21;18.20;99.90
40374;DHT22;26079;45.958;12.492;2023-07-28T03:56:47;18.20;99.90
40374;DHT22;26079;45.958;12.492;2023-07-28T03:59:12;18.20;99.90
40374;DHT22;26079;45.958;12.492;2023-07-28T04:01:38;18.30;99.90
40374;DHT22;26079;45.958;12.492;2023-07-28T04:04:04;18.20;99.90
40374;DHT22;26079;45.958;12.492;2023-07-28T04:06:41;18.20;99.90
40374;DHT22;26079;45.958;12.492;2023-07-28T04:09:12;18.30;99.90
40374;DHT22;26079;45.958;12.492;2023-07-28T04:11:38;18.30;99.90
40374;DHT22;26079;45.958;12.492;2023-07-28T04:14:04;18.40;99.90
40374;DHT22;26079;45.958;12.492;2023-07-28T04:16:30;18.40;99.90
40374;DHT22;26079;45.958;12.492;2023-07-28T04:18:56;18.40;99.90
40374;DHT22;26079;45.958;12.492;2023-07-28T04:21:22;18.50;99.90
40374;DHT22;26079;45.958;12.492;2023-07-28T04:23:48;18.50;99.90
40374;DHT22;26079;45.958;12.492;2023-07-28T04:26:13;18.60;99.90
40374;DHT22;26079;45.958;12.492;2023-07-28T04:28:39;18.60;99.90
40374;DHT22;26079;45.958;12.492;2023-07-28T04:31:05;18.60;99.90
40374;DHT22;26079;45.958;12.492;2023-07-28T04:33:31;18.60;99.90
40374;DHT22;26079;45.958;12.492;2023-07-28T04:35:56;18.70;99.90
40374;DHT22;26079;45.958;12.492;2023-07-28T04:38:22;18.70;99.90
40374;DHT22;26079;45.958;12.492;2023-07-28T04:40:48;18.70;99.90
40374;DHT22;26079;45.958;12.492;2023-07-28T04:43:13;18.80;99.90
40374;DHT22;26079;45.958;12.492;2023-07-28T04:45:39;18.90;99.90
40374;DHT22;26079;45.958;12.492;2023-07-28T04:48:05;18.90;99.90
40374;DHT22;26079;45.958;12.492;2023-07-28T04:50:30;18.90;99.90
40374;DHT22;26079;45.958;12.492;2023-07-28T04:52:59;19.00;99.90
40374;DHT22;26079;45.958;12.492;2023-07-28T04:55:25;19.00;99.90
40374;DHT22;26079;45.958;12.492;2023-07-28T04:57:52;19.10;99.90
40374;DHT22;26079;45.958;12.492;2023-07-28T05:00:18;19.10;99.90
40374;DHT22;26079;45.958;12.492;2023-07-28T05:02:44;19.10;99.90
40374;DHT22;26079;45.958;12.492;2023-07-28T05:05:10;19.20;99.90
40374;DHT22;26079;45.958;12.492;2023-07-28T05:07:35;19.20;99.90
40374;DHT22;26079;45.958;12.492;2023-07-28T05:10:01;19.30;99.90
40374;DHT22;26079;45.958;12.492;2023-07-28T05:12:28;19.40;99.90
40374;DHT22;26079;45.958;12.492;2023-07-28T05:14:54;19.40;99.90
40374;DHT22;26079;45.958;12.492;2023-07-28T05:17:19;19.40;99.90
40374;DHT22;26079;45.958;12.492;2023-07-28T05:19:45;19.50;99.90
40374;DHT22;26079;45.958;12.492;2023-07-28T05:22:11;19.70;99.90
40374;DHT22;26079;45.958;12.492;2023-07-28T05:24:37;19.70;99.90
40374;DHT22;26079;45.958;12.492;2023-07-28T05:27:02;19.80;99.90
40374;DHT22;26079;45.958;12.492;2023-07-28T05:29:28;19.90;99.90
40374;DHT22;26079;45.958;12.492;2023-07-28T05:31:54;20.00;99.90
40374;DHT22;26079;45.958;12.492;2023-07-28T05:34:19;20.20;99.90
40374;DHT22;26079;45.958;12.492;2023-07-28T05:36:45;20.30;99.90
40374;DHT22;26079;45.958;12.492;2023-07-28T05:39:11;20.40;99.90
40374;DHT22;26079;45.958;12.492;2023-07-28T05:41:37;20.40;99.90
40374;DHT22;26079;45.958;12.492;2023-07-28T05:44:03;20.40;99.70
40374;DHT22;26079;45.958;12.492;2023-07-28T05:46:29;20.30;99.90
40374;DHT22;26079;45.958;12.492;2023-07-28T05:48:55;20.20;99.90
40374;DHT22;26079;45.958;12.492;2023-07-28T05:51:22;20.30;99.90
40374;DHT22;26079;45.958;12.492;2023-07-28T05:53:49;20.30;99.60
40374;DHT22;26079;45.958;12.492;2023-07-28T05:56:14;20.20;99.60
40374;DHT22;26079;45.958;12.492;2023-07-28T05:58:40;20.10;98.50
40374;DHT22;26079;45.958;12.492;2023-07-28T06:01:06;20.10;99.70
40374;DHT22;26079;45.958;12.492;2023-07-28T06:03:31;20.20;99.60
40374;DHT22;26079;45.958;12.492;2023-07-28T06:05:57;20.20;99.50
40374;DHT22;26079;45.958;12.492;2023-07-28T06:08:23;20.40;99.90
40374;DHT22;26079;45.958;12.492;2023-07-28T06:10:49;20.40;99.00
40374;DHT22;26079;45.958;12.492;2023-07-28T06:13:14;20.50;98.80
40374;DHT22;26079;45.958;12.492;2023-07-28T06:15:41;20.60;98.00
40374;DHT22;26079;45.958;12.492;2023-07-28T06:18:07;20.80;97.70
40374;DHT22;26079;45.958;12.492;2023-07-28T06:20:33;20.90;97.50
40374;DHT22;26079;45.958;12.492;2023-07-28T06:23:00;21.10;96.70
40374;DHT22;26079;45.958;12.492;2023-07-28T06:25:26;21.40;96.70
40374;DHT22;26079;45.958;12.492;2023-07-28T06:27:51;21.50;94.40
40374;DHT22;26079;45.958;12.492;2023-07-28T06:30:17;21.70;94.30
40374;DHT22;26079;45.958;12.492;2023-07-28T06:32:43;22.40;93.30
40374;DHT22;26079;45.958;12.492;2023-07-28T06:35:08;23.00;92.00
40374;DHT22;26079;45.958;12.492;2023-07-28T06:37:38;23.70;89.70
40374;DHT22;26079;45.958;12.492;2023-07-28T06:40:07;24.50;86.40
40374;DHT22;26079;45.958;12.492;2023-07-28T06:42:35;24.70;83.50
40374;DHT22;26079;45.958;12.492;2023-07-28T06:45:05;24.40;83.50
40374;DHT22;26079;45.958;12.492;2023-07-28T06:47:31;23.70;85.00
40374;DHT22;26079;45.958;12.492;2023-07-28T06:49:56;23.20;88.50
40374;DHT22;26079;45.958;12.492;2023-07-28T06:52:22;23.10;89.60
40374;DHT22;26079;45.958;12.492;2023-07-28T06:54:48;23.20;89.90
40374;DHT22;26079;45.958;12.492;2023-07-28T06:57:15;23.10;89.60
40374;DHT22;26079;45.958;12.492;2023-07-28T06:59:41;23.10;89.30
40374;DHT22;26079;45.958;12.492;2023-07-28T07:02:07;23.00;90.40
40374;DHT22;26079;45.958;12.492;2023-07-28T07:04:34;23.20;90.70
40374;DHT22;26079;45.958;12.492;2023-07-28T07:07:00;23.00;87.60
40374;DHT22;26079;45.958;12.492;2023-07-28T07:09:25;22.90;88.40
40374;DHT22;26079;45.958;12.492;2023-07-28T07:11:51;22.80;88.50
40374;DHT22;26079;45.958;12.492;2023-07-28T07:14:17;22.90;89.80
40374;DHT22;26079;45.958;12.492;2023-07-28T07:16:43;23.20;89.40
40374;DHT22;26079;45.958;12.492;2023-07-28T07:19:09;23.50;88.00
40374;DHT22;26079;45.958;12.492;2023-07-28T07:21:34;23.90;86.10
40374;DHT22;26079;45.958;12.492;2023-07-28T07:24:02;23.90;83.70
40374;DHT22;26079;45.958;12.492;2023-07-28T07:26:28;24.00;84.10
40374;DHT22;26079;45.958;12.492;2023-07-28T07:28:53;24.20;82.70
40374;DHT22;26079;45.958;12.492;2023-07-28T07:31:19;24.40;81.30
40374;DHT22;26079;45.958;12.492;2023-07-28T07:33:46;24.50;80.70
40374;DHT22;26079;45.958;12.492;2023-07-28T07:36:15;24.40;78.30
40374;DHT22;26079;45.958;12.492;2023-07-28T07:38:41;24.50;77.20
40374;DHT22;26079;45.958;12.492;2023-07-28T07:41:08;24.80;78.80
40374;DHT22;26079;45.958;12.492;2023-07-28T07:43:36;25.00;77.90
40374;DHT22;26079;45.958;12.492;2023-07-28T07:46:01;24.90;76.70
40374;DHT22;26079;45.958;12.492;2023-07-28T07:48:27;24.90;78.90
40374;DHT22;26079;45.958;12.492;2023-07-28T07:50:53;25.10;75.80
40374;DHT22;26079;45.958;12.492;2023-07-28T07:53:18;24.60;75.10
40374;DHT22;26079;45.958;12.492;2023-07-28T07:55:44;24.60;77.20
40374;DHT22;26079;45.958;12.492;2023-07-28T07:58:10;24.80;78.20
40374;DHT22;26079;45.958;12.492;2023-07-28T08:00:38;24.90;76.70
40374;DHT22;26079;45.958;12.492;2023-07-28T08:03:04;24.80;76.70
40374;DHT22;26079;45.958;12.492;2023-07-28T08:05:31;24.70;75.00
40374;DHT22;26079;45.958;12.492;2023-07-28T08:07:57;24.30;77.30
40374;DHT22;26079;45.958;12.492;2023-07-28T08:10:23;24.20;79.30
40374;DHT22;26079;45.958;12.492;2023-07-28T08:12:49;24.20;76.10
40374;DHT22;26079;45.958;12.492;2023-07-28T08:15:15;24.30;77.00
40374;DHT22;26079;45.958;12.492;2023-07-28T08:17:40;24.30;79.10
40374;DHT22;26079;45.958;12.492;2023-07-28T08:20:07;24.10;76.90
40374;DHT22;26079;45.958;12.492;2023-07-28T08:22:33;23.90;78.40
40374;DHT22;26079;45.958;12.492;2023-07-28T08:24:59;23.80;80.30
40374;DHT22;26079;45.958;12.492;2023-07-28T08:27:25;23.80;80.10
40374;DHT22;26079;45.958;12.492;2023-07-28T08:29:50;23.90;80.70
40374;DHT22;26079;45.958;12.492;2023-07-28T08:32:16;24.10;79.50
40374;DHT22;26079;45.958;12.492;2023-07-28T08:34:42;24.10;76.90
40374;DHT22;26079;45.958;12.492;2023-07-28T08:37:08;24.20;78.30
40374;DHT22;26079;45.958;12.492;2023-07-28T08:39:34;24.20;78.50
40374;DHT22;26079;45.958;12.492;2023-07-28T08:42:00;24.30;78.50
40374;DHT22;26079;45.958;12.492;2023-07-28T08:44:30;24.30;78.90
40374;DHT22;26079;45.958;12.492;2023-07-28T08:46:57;24.40;78.20
40374;DHT22;26079;45.958;12.492;2023-07-28T08:49:23;24.50;77.60
40374;DHT22;26079;45.958;12.492;2023-07-28T08:51:56;24.50;76.90
40374;DHT22;26079;45.958;12.492;2023-07-28T08:54:23;24.80;78.20
40374;DHT22;26079;45.958;12.492;2023-07-28T08:56:49;25.10;76.40
40374;DHT22;26079;45.958;12.492;2023-07-28T08:59:22;25.30;75.10
40374;DHT22;26079;45.958;12.492;2023-07-28T09:01:50;25.50;75.00
40374;DHT22;26079;45.958;12.492;2023-07-28T09:04:16;25.80;76.00
40374;DHT22;26079;45.958;12.492;2023-07-28T09:06:45;26.10;74.10
40374;DHT22;26079;45.958;12.492;2023-07-28T09:09:11;26.30;74.10
40374;DHT22;26079;45.958;12.492;2023-07-28T09:11:47;26.30;74.40
40374;DHT22;26079;45.958;12.492;2023-07-28T09:14:14;26.50;73.50
40374;DHT22;26079;45.958;12.492;2023-07-28T09:16:42;26.50;73.80
40374;DHT22;26079;45.958;12.492;2023-07-28T09:19:08;26.40;74.20
40374;DHT22;26079;45.958;12.492;2023-07-28T09:21:34;26.50;73.10
40374;DHT22;26079;45.958;12.492;2023-07-28T09:24:03;26.20;73.60
40374;DHT22;26079;45.958;12.492;2023-07-28T09:26:40;26.20;73.20
40374;DHT22;26079;45.958;12.492;2023-07-28T09:29:17;26.10;74.20
40374;DHT22;26079;45.958;12.492;2023-07-28T09:31:47;26.00;74.80
40374;DHT22;26079;45.958;12.492;2023-07-28T09:34:24;26.20;75.60
40374;DHT22;26079;45.958;12.492;2023-07-28T09:36:49;26.30;75.80
40374;DHT22;26079;45.958;12.492;2023-07-28T09:39:15;26.40;74.30
40374;DHT22;26079;45.958;12.492;2023-07-28T09:41:44;26.40;73.40
40374;DHT22;26079;45.958;12.492;2023-07-28T09:44:10;26.20;73.30
40374;DHT22;26079;45.958;12.492;2023-07-28T09:46:50;26.20;73.90
40374;DHT22;26079;45.958;12.492;2023-07-28T09:49:22;26.30;73.20
40374;DHT22;26079;45.958;12.492;2023-07-28T09:51:54;26.30;74.50
40374;DHT22;26079;45.958;12.492;2023-07-28T09:54:30;26.40;75.10
40374;DHT22;26079;45.958;12.492;2023-07-28T09:56:59;26.50;73.40
40374;DHT22;26079;45.958;12.492;2023-07-28T09:59:29;26.30;74.50
40374;DHT22;26079;45.958;12.492;2023-07-28T10:01:58;26.50;75.20
40374;DHT22;26079;45.958;12.492;2023-07-28T10:04:25;26.60;75.50
40374;DHT22;26079;45.958;12.492;2023-07-28T10:06:52;26.80;75.60
40374;DHT22;26079;45.958;12.492;2023-07-28T10:09:24;27.00;75.50
40374;DHT22;26079;45.958;12.492;2023-07-28T10:11:50;27.10;74.20
40374;DHT22;26079;45.958;12.492;2023-07-28T10:14:29;26.90;72.80
40374;DHT22;26079;45.958;12.492;2023-07-28T10:17:00;26.60;73.80
40374;DHT22;26079;45.958;12.492;2023-07-28T10:19:34;26.40;74.60
40374;DHT22;26079;45.958;12.492;2023-07-28T10:22:00;26.50;75.60
40374;DHT22;26079;45.958;12.492;2023-07-28T10:25:01;26.70;76.20
40374;DHT22;26079;45.958;12.492;2023-07-28T10:27:38;26.70;74.70
40374;DHT22;26079;45.958;12.492;2023-07-28T10:30:09;26.80;74.40
40374;DHT22;26079;45.958;12.492;2023-07-28T10:32:37;27.00;76.50
40374;DHT22;26079;45.958;12.492;2023-07-28T10:35:08;27.20;74.20
40374;DHT22;26079;45.958;12.492;2023-07-28T10:37:36;27.20;74.00
40374;DHT22;26079;45.958;12.492;2023-07-28T10:40:33;27.10;74.00
40374;DHT22;26079;45.958;12.492;2023-07-28T10:43:04;27.50;72.30
40374;DHT22;26079;45.958;12.492;2023-07-28T10:45:32;27.60;73.60
40374;DHT22;26079;45.958;12.492;2023-07-28T10:47:58;27.60;73.20
40374;DHT22;26079;45.958;12.492;2023-07-28T10:50:32;27.50;74.30
40374;DHT22;26079;45.958;12.492;2023-07-28T10:52:58;27.50;74.40
40374;DHT22;26079;45.958;12.492;2023-07-28T10:55:26;27.40;73.90
40374;DHT22;26079;45.958;12.492;2023-07-28T10:57:53;27.40;75.60
40374;DHT22;26079;45.958;12.492;2023-07-28T11:00:21;27.60;74.20
40374;DHT22;26079;45.958;12.492;2023-07-28T11:02:54;27.80;73.30
40374;DHT22;26079;45.958;12.492;2023-07-28T11:05:21;27.90;74.60
40374;DHT22;26079;45.958;12.492;2023-07-28T11:07:51;28.00;74.10
40374;DHT22;26079;45.958;12.492;2023-07-28T11:10:18;28.00;73.60
40374;DHT22;26079;45.958;12.492;2023-07-28T11:12:46;27.90;72.80
40374;DHT22;26079;45.958;12.492;2023-07-28T11:15:13;28.00;73.40
40374;DHT22;26079;45.958;12.492;2023-07-28T11:17:50;28.20;73.20
40374;DHT22;26079;45.958;12.492;2023-07-28T11:20:17;28.40;73.30
40374;DHT22;26079;45.958;12.492;2023-07-28T11:22:51;28.20;70.60
40374;DHT22;26079;45.958;12.492;2023-07-28T11:25:18;27.70;72.10
40374;DHT22;26079;45.958;12.492;2023-07-28T11:27:44;27.50;73.30
40374;DHT22;26079;45.958;12.492;2023-07-28T11:30:14;27.30;73.80
40374;DHT22;26079;45.958;12.492;2023-07-28T11:32:43;27.50;74.40
40374;DHT22;26079;45.958;12.492;2023-07-28T11:35:10;27.60;74.10
40374;DHT22;26079;45.958;12.492;2023-07-28T11:37:38;28.00;73.00
40374;DHT22;26079;45.958;12.492;2023-07-28T11:40:06;28.30;73.40
40374;DHT22;26079;45.958;12.492;2023-07-28T11:42:48;28.40;71.80
40374;DHT22;26079;45.958;12.492;2023-07-28T11:45:16;28.50;71.90
40374;DHT22;26079;45.958;12.492;2023-07-28T11:48:04;28.30;72.40
40374;DHT22;26079;45.958;12.492;2023-07-28T11:50:39;28.00;71.60
40374;DHT22;26079;45.958;12.492;2023-07-28T11:53:05;27.70;73.50
40374;DHT22;26079;45.958;12.492;2023-07-28T11:55:35;27.60;73.10
40374;DHT22;26079;45.958;12.492;2023-07-28T11:58:02;27.50;75.20
40374;DHT22;26079;45.958;12.492;2023-07-28T12:00:36;27.10;76.40
40374;DHT22;26079;45.958;12.492;2023-07-28T12:03:06;27.00;76.70
40374;DHT22;26079;45.958;12.492;2023-07-28T12:05:32;27.00;74.90
40374;DHT22;26079;45.958;12.492;2023-07-28T12:08:01;27.00;75.70
40374;DHT22;26079;45.958;12.492;2023-07-28T12:10:29;26.80;76.40
40374;DHT22;26079;45.958;12.492;2023-07-28T12:12:55;26.70;76.90
40374;DHT22;26079;45.958;12.492;2023-07-28T12:15:25;26.70;77.20
40374;DHT22;26079;45.958;12.492;2023-07-28T12:20:37;26.80;78.10
40374;DHT22;26079;45.958;12.492;2023-07-28T12:23:04;26.90;77.10
40374;DHT22;26079;45.958;12.492;2023-07-28T12:25:30;26.90;77.20
40374;DHT22;26079;45.958;12.492;2023-07-28T12:27:56;26.90;78.40
40374;DHT22;26079;45.958;12.492;2023-07-28T12:30:22;26.80;78.60
40374;DHT22;26079;45.958;12.492;2023-07-28T12:32:47;26.80;78.70
40374;DHT22;26079;45.958;12.492;2023-07-28T12:35:13;26.80;80.20
40374;DHT22;26079;45.958;12.492;2023-07-28T12:37:39;26.90;79.90
40374;DHT22;26079;45.958;12.492;2023-07-28T12:40:05;26.90;78.70
40374;DHT22;26079;45.958;12.492;2023-07-28T12:42:32;27.00;79.70
40374;DHT22;26079;45.958;12.492;2023-07-28T12:44:57;27.10;78.90
40374;DHT22;26079;45.958;12.492;2023-07-28T12:47:23;26.90;77.10
40374;DHT22;26079;45.958;12.492;2023-07-28T12:49:49;26.80;77.70
40374;DHT22;26079;45.958;12.492;2023-07-28T12:52:15;27.00;77.60
40374;DHT22;26079;45.958;12.492;2023-07-28T12:54:41;27.00;77.90
40374;DHT22;26079;45.958;12.492;2023-07-28T12:57:08;27.00;78.10
40374;DHT22;26079;45.958;12.492;2023-07-28T12:59:36;27.20;79.10
40374;DHT22;26079;45.958;12.492;2023-07-28T13:02:02;27.10;77.30
40374;DHT22;26079;45.958;12.492;2023-07-28T13:04:27;27.20;78.50
40374;DHT22;26079;45.958;12.492;2023-07-28T13:06:53;27.50;79.70
40374;DHT22;26079;45.958;12.492;2023-07-28T13:09:20;27.60;76.70
40374;DHT22;26079;45.958;12.492;2023-07-28T13:11:46;27.80;76.70
40374;DHT22;26079;45.958;12.492;2023-07-28T13:14:11;28.00;77.20
40374;DHT22;26079;45.958;12.492;2023-07-28T13:16:37;28.20;75.80
40374;DHT22;26079;45.958;12.492;2023-07-28T13:19:04;28.10;73.80
40374;DHT22;26079;45.958;12.492;2023-07-28T13:21:29;28.00;73.80
40374;DHT22;26079;45.958;12.492;2023-07-28T13:23:55;28.00;74.80
40374;DHT22;26079;45.958;12.492;2023-07-28T13:26:21;28.10;75.90
40374;DHT22;26079;45.958;12.492;2023-07-28T13:28:47;28.20;75.00
40374;DHT22;26079;45.958;12.492;2023-07-28T13:31:15;28.30;75.60
40374;DHT22;26079;45.958;12.492;2023-07-28T13:33:42;28.30;75.30
40374;DHT22;26079;45.958;12.492;2023-07-28T13:36:08;28.40;71.80
40374;DHT22;26079;45.958;12.492;2023-07-28T13:38:34;28.40;73.80
40374;DHT22;26079;45.958;12.492;2023-07-28T13:41:00;28.60;74.90
40374;DHT22;26079;45.958;12.492;2023-07-28T13:43:26;28.50;72.00
40374;DHT22;26079;45.958;12.492;2023-07-28T13:45:52;28.60;73.40
40374;DHT22;26079;45.958;12.492;2023-07-28T13:48:17;28.60;73.30
40374;DHT22;26079;45.958;12.492;2023-07-28T13:50:43;28.70;75.00
40374;DHT22;26079;45.958;12.492;2023-07-28T13:53:09;28.70;71.60
40374;DHT22;26079;45.958;12.492;2023-07-28T13:55:35;28.60;75.10
40374;DHT22;26079;45.958;12.492;2023-07-28T13:58:01;28.70;74.60
40374;DHT22;26079;45.958;12.492;2023-07-28T14:00:27;28.60;71.80
40374;DHT22;26079;45.958;12.492;2023-07-28T14:02:52;28.50;73.90
40374;DHT22;26079;45.958;12.492;2023-07-28T14:05:18;28.40;73.30
40374;DHT22;26079;45.958;12.492;2023-07-28T14:07:45;28.40;74.30
40374;DHT22;26079;45.958;12.492;2023-07-28T14:10:12;28.30;74.90
40374;DHT22;26079;45.958;12.492;2023-07-28T14:12:38;28.20;73.40
40374;DHT22;26079;45.958;12.492;2023-07-28T14:15:04;28.10;74.80
40374;DHT22;26079;45.958;12.492;2023-07-28T14:17:31;28.10;74.50
40374;DHT22;26079;45.958;12.492;2023-07-28T14:19:57;28.20;74.90
40374;DHT22;26079;45.958;12.492;2023-07-28T14:22:23;28.40;73.70
40374;DHT22;26079;45.958;12.492;2023-07-28T14:24:48;28.50;73.10
40374;DHT22;26079;45.958;12.492;2023-07-28T14:27:14;28.60;73.60
40374;DHT22;26079;45.958;12.492;2023-07-28T14:29:40;28.60;72.60
40374;DHT22;26079;45.958;12.492;2023-07-28T14:32:06;28.60;73.10
40374;DHT22;26079;45.958;12.492;2023-07-28T14:34:31;28.50;74.00
40374;DHT22;26079;45.958;12.492;2023-07-28T14:36:57;28.50;71.90
40374;DHT22;26079;45.958;12.492;2023-07-28T14:39:23;28.50;74.90
40374;DHT22;26079;45.958;12.492;2023-07-28T14:41:48;28.40;75.60
40374;DHT22;26079;45.958;12.492;2023-07-28T14:44:14;28.40;75.50
40374;DHT22;26079;45.958;12.492;2023-07-28T14:46:41;28.30;75.20
40374;DHT22;26079;45.958;12.492;2023-07-28T14:49:07;28.10;75.60
40374;DHT22;26079;45.958;12.492;2023-07-28T14:51:33;28.10;77.50
40374;DHT22;26079;45.958;12.492;2023-07-28T14:53:58;28.10;75.40
40374;DHT22;26079;45.958;12.492;2023-07-28T14:56:24;28.00;74.80
40374;DHT22;26079;45.958;12.492;2023-07-28T14:58:50;27.90;76.90
40374;DHT22;26079;45.958;12.492;2023-07-28T15:01:20;28.00;75.30
40374;DHT22;26079;45.958;12.492;2023-07-28T15:03:46;27.90;74.30
40374;DHT22;26079;45.958;12.492;2023-07-28T15:06:12;27.90;75.30
40374;DHT22;26079;45.958;12.492;2023-07-28T15:08:38;27.80;75.10
40374;DHT22;26079;45.958;12.492;2023-07-28T15:11:04;27.80;76.30
40374;DHT22;26079;45.958;12.492;2023-07-28T15:13:29;27.70;77.10
40374;DHT22;26079;45.958;12.492;2023-07-28T15:15:55;27.70;77.00
40374;DHT22;26079;45.958;12.492;2023-07-28T15:18:21;27.70;77.60
40374;DHT22;26079;45.958;12.492;2023-07-28T15:20:47;27.60;78.30
40374;DHT22;26079;45.958;12.492;2023-07-28T15:23:12;27.50;76.80